Time;durP1;ratioP1;P1;durP2;ratioP2;P2;SDS_P1;SDS_P2;PMS_P1;PMS_P2;Temp;Humidity;BMP_temperature;BMP_pressure;BME280_temperature;BME280_humidity;BME280_pressure;Samples;Min_cycle;Max_cycle;Signal;HPM_P1;HPM_P2
2024/03/13 00:00:29;;;;;;;6.45;5.70;;;8.60;99.90;;;;;;5022825;28;20451;-87
2024/03/13 00:02:55;;;;;;;4.97;4.47;;;9.10;99.90;;;;;;5021036;28;20207;-87
2024/03/13 00:05:20;;;;;;;5.23;4.73;;;8.60;99.90;;;;;;5038268;28;20193;-86
2024/03/13 00:07:46;;;;;;;5.67;3.80;;;8.70;99.90;;;;;;5041612;28;20448;-85
2024/03/13 00:10:12;;;;;;;8.40;4.87;;;9.00;99.90;;;;;;5041511;28;20182;-85
2024/03/13 00:12:37;;;;;;;3.53;3.20;;;10.90;99.90;;;;;;5045009;28;20187;-86
2024/03/13 00:15:05;;;;;;;4.80;4.30;;;8.90;99.90;;;;;;5035759;28;20194;-85
2024/03/13 00:17:31;;;;;;;4.47;3.58;;;8.30;99.90;;;;;;5027926;28;20211;-85
2024/03/13 00:19:57;;;;;;;3.88;3.30;;;8.60;99.90;;;;;;5029220;28;20187;-87
2024/03/13 00:22:24;;;;;;;3.28;2.97;;;8.40;99.90;;;;;;5021695;28;20590;-85
2024/03/13 00:24:52;;;;;;;4.72;3.17;;;8.30;99.90;;;;;;5029621;28;20186;-87
2024/03/13 00:27:20;;;;;;;5.38;3.35;;;8.70;99.90;;;;;;5022856;28;20202;-86
2024/03/13 00:29:46;;;;;;;2.92;2.70;;;8.10;99.90;;;;;;5038431;28;20270;-86
2024/03/13 00:32:16;;;;;;;3.05;2.30;;;8.80;99.90;;;;;;5025172;28;20541;-87
2024/03/13 00:34:45;;;;;;;4.68;2.72;;;8.60;99.90;;;;;;5035015;28;20218;-87
2024/03/13 00:37:12;;;;;;;3.05;2.30;;;8.20;99.90;;;;;;5024955;28;20210;-86
2024/03/13 00:39:37;;;;;;;3.30;2.50;;;7.80;99.90;;;;;;5026524;28;20796;-87
2024/03/13 00:42:04;;;;;;;2.50;2.30;;;8.30;99.90;;;;;;5022599;28;20215;-86
2024/03/13 00:44:29;;;;;;;2.50;2.20;;;8.20;99.90;;;;;;5027727;28;20217;-85
2024/03/13 00:46:56;;;;;;;3.17;2.27;;;8.00;99.90;;;;;;5027871;28;20206;-86
2024/03/13 00:49:22;;;;;;;2.83;1.95;;;8.20;99.90;;;;;;5026681;28;20186;-87
2024/03/13 00:51:49;;;;;;;1.85;1.75;;;8.00;99.90;;;;;;5024907;28;20191;-87
2024/03/13 00:54:15;;;;;;;1.98;1.70;;;8.20;99.90;;;;;;5019352;28;20580;-87
2024/03/13 00:56:41;;;;;;;1.87;1.77;;;8.50;99.90;;;;;;5027136;28;20214;-87
2024/03/13 00:59:11;;;;;;;2.33;2.08;;;7.70;99.90;;;;;;5026225;28;20455;-88
2024/03/13 01:01:40;;;;;;;2.85;2.13;;;7.80;99.90;;;;;;5016262;28;20790;-86
2024/03/13 01:04:07;;;;;;;2.63;2.38;;;8.40;99.90;;;;;;5022464;28;20684;-87
2024/03/13 01:06:34;;;;;;;2.53;2.10;;;7.90;99.90;;;;;;5037146;28;20219;-87
2024/03/13 01:08:59;;;;;;;2.20;2.00;;;7.90;99.90;;;;;;5007116;28;20278;-87
2024/03/13 01:11:27;;;;;;;2.07;1.90;;;7.90;99.90;;;;;;5025552;28;20282;-87
2024/03/13 01:13:54;;;;;;;3.33;2.28;;;8.00;99.90;;;;;;5024234;28;20182;-87
2024/03/13 01:16:20;;;;;;;1.60;1.50;;;8.00;99.90;;;;;;5021157;28;20252;-86
2024/03/13 01:18:46;;;;;;;1.57;1.40;;;7.90;99.90;;;;;;5023283;28;20183;-86
2024/03/13 01:21:12;;;;;;;3.07;2.07;;;8.00;99.90;;;;;;5020224;28;20535;-87
2024/03/13 01:23:40;;;;;;;1.67;1.40;;;8.00;99.90;;;;;;5023968;28;20537;-87
2024/03/13 01:26:06;;;;;;;1.65;1.55;;;7.80;99.90;;;;;;5024755;28;20203;-87
2024/03/13 01:28:32;;;;;;;1.83;1.40;;;8.00;99.90;;;;;;5025851;28;20187;-87
2024/03/13 01:30:59;;;;;;;1.37;1.27;;;7.80;99.90;;;;;;5023127;28;20240;-86
2024/03/13 01:33:26;;;;;;;1.52;1.35;;;7.80;99.90;;;;;;5022854;28;20257;-87
2024/03/13 01:35:52;;;;;;;1.60;1.50;;;7.90;99.90;;;;;;5025694;28;20829;-88
2024/03/13 01:38:17;;;;;;;2.00;1.37;;;7.90;99.90;;;;;;5024591;28;20272;-87
2024/03/13 01:55:09;;;;;;;1.27;1.17;;;8.00;99.90;;;;;;5023865;28;20220;-86
2024/03/13 01:57:56;;;;;;;1.27;0.82;;;7.60;99.90;;;;;;5032129;28;20201;-86
2024/03/13 02:03:11;;;;;;;1.10;1.00;;;7.60;99.90;;;;;;5030905;28;20216;-87
2024/03/13 02:05:37;;;;;;;2.15;0.98;;;7.80;99.90;;;;;;5021576;28;20198;-86
2024/03/13 02:08:05;;;;;;;1.20;1.10;;;7.80;99.90;;;;;;5029898;28;20199;-86
2024/03/13 02:10:31;;;;;;;1.20;0.98;;;8.00;99.90;;;;;;5029386;28;20283;-87
2024/03/13 02:13:07;;;;;;;0.73;0.73;;;8.00;99.90;;;;;;5031636;28;20268;-87
2024/03/13 02:15:33;;;;;;;1.40;0.82;;;7.90;99.90;;;;;;5027382;28;20372;-87
2024/03/13 02:18:00;;;;;;;1.85;0.80;;;8.30;99.90;;;;;;5027017;28;20183;-86
2024/03/13 02:20:27;;;;;;;0.80;0.70;;;8.00;99.90;;;;;;5027868;28;20182;-86
2024/03/13 02:23:02;;;;;;;0.93;0.90;;;7.90;99.90;;;;;;5030141;28;20215;-86
2024/03/13 02:25:31;;;;;;;0.93;0.70;;;7.90;99.90;;;;;;5044037;28;20249;-87
2024/03/13 02:27:58;;;;;;;0.98;0.80;;;7.60;99.90;;;;;;5028345;28;20811;-87
2024/03/13 02:30:24;;;;;;;1.20;0.90;;;7.90;99.90;;;;;;5031371;28;20183;-85
2024/03/13 02:32:50;;;;;;;1.73;0.90;;;8.20;99.90;;;;;;5043528;28;20202;-86
2024/03/13 02:35:16;;;;;;;1.00;0.90;;;8.00;99.90;;;;;;5049894;28;20456;-87
2024/03/13 02:37:42;;;;;;;1.20;0.87;;;8.00;99.90;;;;;;5047376;28;20191;-86
2024/03/13 02:40:10;;;;;;;1.10;0.93;;;8.00;99.90;;;;;;5047872;28;20175;-86
2024/03/13 02:42:36;;;;;;;1.92;1.45;;;7.90;99.90;;;;;;5039365;28;20214;-86
2024/03/13 02:45:02;;;;;;;3.73;3.20;;;7.90;99.90;;;;;;5042006;28;20258;-86
2024/03/13 02:47:27;;;;;;;1.15;0.80;;;8.00;99.90;;;;;;5050933;28;20452;-87
2024/03/13 02:49:53;;;;;;;1.07;0.93;;;7.90;99.90;;;;;;5050695;28;20198;-87
2024/03/13 02:52:18;;;;;;;1.33;1.23;;;8.10;99.90;;;;;;5049861;28;20206;-86
2024/03/13 02:54:44;;;;;;;2.87;2.20;;;8.00;99.90;;;;;;5046079;28;20218;-86
2024/03/13 02:57:09;;;;;;;1.10;0.90;;;8.10;99.90;;;;;;5053402;28;20202;-86
2024/03/13 02:59:35;;;;;;;1.17;1.07;;;8.20;99.90;;;;;;5043057;28;20175;-86
2024/03/13 03:02:00;;;;;;;1.20;0.97;;;8.50;99.90;;;;;;5047963;28;20210;-89
2024/03/13 03:04:26;;;;;;;1.10;1.00;;;8.40;99.90;;;;;;5043275;28;20246;-89
2024/03/13 03:06:52;;;;;;;1.00;0.87;;;8.20;99.90;;;;;;5047188;28;20203;-89
2024/03/13 03:09:17;;;;;;;1.57;1.10;;;8.00;99.90;;;;;;5048648;28;20204;-89
2024/03/13 03:11:43;;;;;;;1.03;0.90;;;8.40;99.90;;;;;;5055099;28;20238;-89
2024/03/13 03:14:10;;;;;;;1.20;1.10;;;7.80;99.90;;;;;;5035882;28;20217;-89
2024/03/13 03:16:35;;;;;;;1.17;1.08;;;8.40;99.90;;;;;;5025215;28;20212;-89
2024/03/13 03:19:01;;;;;;;1.10;1.00;;;7.90;99.90;;;;;;5026775;28;20191;-89
2024/03/13 03:21:27;;;;;;;1.63;1.30;;;8.20;99.90;;;;;;5022157;28;20238;-89
2024/03/13 03:23:53;;;;;;;2.70;1.37;;;8.10;99.90;;;;;;5027279;28;20191;-89
2024/03/13 03:26:19;;;;;;;1.30;1.20;;;8.00;99.90;;;;;;5022807;28;20437;-89
2024/03/13 03:28:44;;;;;;;1.40;1.30;;;8.10;99.90;;;;;;5028515;28;20233;-89
2024/03/13 03:31:10;;;;;;;1.83;1.00;;;8.20;99.90;;;;;;5013387;28;20186;-89
2024/03/13 03:33:37;;;;;;;1.50;1.40;;;7.80;99.90;;;;;;5021966;28;20205;-89
2024/03/13 03:36:05;;;;;;;2.20;1.70;;;7.80;99.90;;;;;;5021441;28;20203;-89
2024/03/13 03:38:32;;;;;;;4.18;1.30;;;8.10;99.90;;;;;;5024427;28;20184;-89
2024/03/13 03:40:58;;;;;;;1.70;1.60;;;8.10;99.90;;;;;;5026277;28;20178;-89
2024/03/13 03:43:23;;;;;;;1.58;1.40;;;8.20;99.90;;;;;;5024560;28;20214;-89
2024/03/13 03:45:50;;;;;;;1.60;1.30;;;8.00;99.90;;;;;;5027559;28;20212;-89
2024/03/13 03:48:15;;;;;;;1.40;1.30;;;8.50;99.90;;;;;;5025019;28;20195;-89
2024/03/13 03:50:41;;;;;;;1.83;1.40;;;7.80;99.90;;;;;;5024203;28;20182;-89
2024/03/13 03:53:07;;;;;;;1.60;1.50;;;8.10;99.90;;;;;;5025230;28;20293;-89
2024/03/13 03:55:33;;;;;;;1.83;1.17;;;8.00;99.90;;;;;;5023524;28;20503;-89
2024/03/13 03:57:59;;;;;;;1.57;1.47;;;7.90;99.90;;;;;;5016892;28;20523;-89
2024/03/13 04:00:24;;;;;;;1.83;1.73;;;8.00;99.90;;;;;;5020285;28;20657;-88
2024/03/13 04:02:51;;;;;;;1.40;1.30;;;7.90;99.90;;;;;;5023367;28;20473;-89
2024/03/13 04:05:18;;;;;;;2.55;1.60;;;8.00;99.90;;;;;;5024006;28;20190;-89
2024/03/13 04:07:43;;;;;;;1.90;1.80;;;7.90;99.90;;;;;;5023697;28;20218;-88
2024/03/13 04:10:09;;;;;;;1.53;1.30;;;8.40;99.90;;;;;;5027066;28;20616;-89
2024/03/13 04:12:35;;;;;;;1.60;1.50;;;7.90;99.90;;;;;;5019831;28;20679;-89
2024/03/13 04:15:02;;;;;;;1.43;1.33;;;8.00;99.90;;;;;;5020295;28;20615;-89
2024/03/13 04:17:28;;;;;;;2.30;1.95;;;8.50;99.90;;;;;;5026768;28;20234;-89
2024/03/13 04:19:53;;;;;;;1.70;1.60;;;7.90;99.90;;;;;;5025849;28;20213;-89
2024/03/13 04:22:19;;;;;;;1.70;1.60;;;7.80;99.90;;;;;;5023123;28;20476;-89
2024/03/13 04:24:44;;;;;;;1.70;1.60;;;8.10;99.90;;;;;;5023185;28;20186;-89
2024/03/13 04:27:10;;;;;;;1.80;1.60;;;7.70;99.90;;;;;;5024437;28;20202;-89
2024/03/13 04:29:36;;;;;;;2.63;2.03;;;7.80;99.90;;;;;;5019506;28;20187;-88
2024/03/13 04:32:01;;;;;;;2.07;1.70;;;8.20;99.90;;;;;;5027040;28;20538;-89
2024/03/13 04:34:27;;;;;;;1.80;1.70;;;8.00;99.90;;;;;;5024519;28;20190;-89
2024/03/13 04:36:53;;;;;;;1.57;1.47;;;8.00;99.90;;;;;;5032427;28;20757;-90
2024/03/13 04:39:19;;;;;;;1.98;1.88;;;8.00;99.90;;;;;;5025583;28;20182;-88
2024/03/13 04:41:45;;;;;;;1.57;1.47;;;8.00;99.90;;;;;;5023581;28;20327;-89
2024/03/13 04:44:10;;;;;;;1.90;1.80;;;7.80;99.90;;;;;;5023193;28;20215;-88
2024/03/13 04:46:36;;;;;;;2.07;1.93;;;7.80;99.90;;;;;;5023870;28;20206;-89
2024/03/13 04:49:03;;;;;;;1.77;1.67;;;8.20;99.90;;;;;;5022123;28;20241;-89
2024/03/13 04:51:29;;;;;;;2.17;1.48;;;7.90;99.90;;;;;;5028250;28;20198;-90
2024/03/13 04:53:55;;;;;;;2.07;1.87;;;8.10;99.90;;;;;;5022981;28;20241;-87
2024/03/13 04:56:20;;;;;;;1.67;1.57;;;8.40;99.90;;;;;;5021644;28;20226;-86
2024/03/13 04:58:46;;;;;;;1.83;1.73;;;8.10;99.90;;;;;;5036550;28;20183;-86
2024/03/13 05:01:18;;;;;;;2.17;2.07;;;8.20;99.90;;;;;;5029991;28;20708;-88
2024/03/13 05:03:44;;;;;;;2.55;2.35;;;8.20;99.90;;;;;;5023290;28;20189;-88
2024/03/13 05:06:10;;;;;;;3.03;2.30;;;8.10;99.90;;;;;;5024860;28;20210;-89
2024/03/13 05:08:35;;;;;;;2.70;2.27;;;8.10;99.90;;;;;;5021719;28;20186;-89
2024/03/13 05:11:01;;;;;;;2.33;2.13;;;8.30;99.90;;;;;;5026423;28;20187;-88
2024/03/13 05:13:26;;;;;;;3.40;2.67;;;8.50;99.90;;;;;;5021914;28;20194;-89
2024/03/13 05:15:52;;;;;;;2.63;2.40;;;8.10;99.90;;;;;;5027110;28;20210;-87
2024/03/13 05:18:21;;;;;;;2.77;2.57;;;7.90;99.90;;;;;;5025412;28;20195;-84
2024/03/13 05:20:46;;;;;;;3.10;2.90;;;8.10;99.90;;;;;;5026642;28;20624;-86
2024/03/13 05:23:12;;;;;;;3.13;2.93;;;8.50;99.90;;;;;;5024956;28;20241;-82
2024/03/13 05:25:37;;;;;;;2.93;2.60;;;8.10;99.90;;;;;;5025737;28;20233;-82
2024/03/13 05:28:03;;;;;;;3.20;2.90;;;8.50;99.90;;;;;;5025403;28;20183;-81
2024/03/13 05:30:29;;;;;;;3.20;2.90;;;8.00;99.90;;;;;;5030949;28;20189;-80
2024/03/13 05:32:56;;;;;;;3.30;2.78;;;8.10;99.90;;;;;;5043894;28;20424;-81
2024/03/13 05:35:22;;;;;;;5.45;4.32;;;8.20;99.90;;;;;;5030224;28;20204;-82
2024/03/13 05:37:47;;;;;;;6.83;5.93;;;8.00;99.90;;;;;;5026360;28;20690;-82
2024/03/13 05:40:16;;;;;;;3.00;2.80;;;7.90;99.90;;;;;;5027497;28;20194;-81
2024/03/13 05:42:42;;;;;;;3.50;3.20;;;7.70;99.90;;;;;;5030955;28;20217;-81
2024/03/13 05:45:11;;;;;;;3.40;2.80;;;8.00;99.90;;;;;;5030062;28;20194;-82
2024/03/13 05:47:37;;;;;;;4.35;3.95;;;7.90;99.90;;;;;;5031764;28;20265;-80
2024/03/13 05:50:03;;;;;;;3.70;3.40;;;7.90;99.90;;;;;;5023932;28;20223;-81
2024/03/13 05:52:29;;;;;;;4.43;3.53;;;7.80;99.90;;;;;;5027387;28;20681;-81
2024/03/13 05:54:55;;;;;;;3.90;3.47;;;7.60;99.90;;;;;;5024595;28;20504;-81
2024/03/13 05:57:23;;;;;;;4.23;3.80;;;7.70;99.90;;;;;;5028189;28;20206;-81
2024/03/13 05:59:50;;;;;;;4.40;4.00;;;8.20;99.90;;;;;;5026182;28;20436;-81
2024/03/13 06:02:16;;;;;;;4.63;4.18;;;8.50;99.90;;;;;;5022349;28;20732;-81
2024/03/13 06:04:42;;;;;;;5.03;4.50;;;8.20;99.90;;;;;;5020636;28;20183;-81
2024/03/13 06:07:08;;;;;;;5.57;4.60;;;8.60;99.90;;;;;;5023014;28;20195;-81
2024/03/13 06:09:33;;;;;;;4.80;4.20;;;8.50;99.90;;;;;;5032495;28;20654;-81
2024/03/13 06:11:59;;;;;;;4.27;3.90;;;8.60;99.90;;;;;;5020785;28;21082;-81
2024/03/13 06:14:25;;;;;;;5.90;4.40;;;8.50;99.90;;;;;;5029256;28;20183;-81
2024/03/13 06:16:50;;;;;;;3.83;3.50;;;8.30;99.90;;;;;;5025519;28;20219;-81
2024/03/13 06:19:16;;;;;;;4.93;4.43;;;8.40;99.90;;;;;;5031225;28;20182;-83
2024/03/13 06:21:41;;;;;;;4.13;3.77;;;8.00;99.90;;;;;;5036408;28;20214;-81
2024/03/13 06:24:07;;;;;;;4.23;3.73;;;8.70;99.90;;;;;;5028160;28;20568;-82
2024/03/13 06:26:33;;;;;;;5.33;4.00;;;8.70;99.90;;;;;;5028575;28;20232;-81
2024/03/13 06:31:43;;;;;;;5.07;4.57;;;8.80;99.90;;;;;;5018995;28;20238;-81
2024/03/13 06:34:09;;;;;;;4.80;4.30;;;8.40;99.90;;;;;;5023532;28;20191;-82
2024/03/13 06:36:39;;;;;;;5.88;5.25;;;8.40;99.90;;;;;;5030542;28;20211;-81
2024/03/13 06:39:05;;;;;;;4.50;4.10;;;8.90;99.90;;;;;;5037691;28;21114;-82
2024/03/13 06:41:31;;;;;;;5.05;4.60;;;8.40;99.90;;;;;;5022440;28;20218;-81
2024/03/13 06:43:57;;;;;;;4.83;4.43;;;8.60;99.90;;;;;;5039655;28;20178;-80
2024/03/13 06:46:24;;;;;;;4.60;4.20;;;8.40;99.90;;;;;;5033747;28;20211;-81
2024/03/13 06:48:50;;;;;;;6.10;5.20;;;8.40;99.90;;;;;;5032891;28;20261;-83
2024/03/13 06:51:16;;;;;;;5.38;4.85;;;8.40;99.90;;;;;;5032004;28;20949;-79
2024/03/13 06:53:42;;;;;;;6.10;4.67;;;8.40;99.90;;;;;;5028096;28;20191;-82
2024/03/13 06:56:07;;;;;;;6.40;5.70;;;8.90;99.90;;;;;;5036635;28;20538;-82
2024/03/13 06:58:34;;;;;;;4.40;3.90;;;8.60;99.90;;;;;;5031505;28;20198;-82
2024/03/13 07:00:59;;;;;;;10.68;8.65;;;8.90;99.90;;;;;;5032230;28;20191;-84
2024/03/13 07:03:25;;;;;;;5.43;4.50;;;8.90;99.90;;;;;;5023493;28;20211;-83
2024/03/13 07:05:51;;;;;;;4.67;4.27;;;8.90;99.90;;;;;;5048344;28;20271;-84
2024/03/13 07:08:18;;;;;;;6.88;4.40;;;9.40;99.90;;;;;;5033363;28;20183;-83
2024/03/13 07:10:44;;;;;;;5.28;4.70;;;9.10;99.90;;;;;;5034101;28;20184;-84
2024/03/13 07:13:09;;;;;;;4.47;4.07;;;9.00;99.90;;;;;;5035820;28;20183;-84
2024/03/13 07:15:35;;;;;;;4.77;4.27;;;9.10;99.90;;;;;;5031621;28;20474;-83
2024/03/13 07:18:03;;;;;;;4.67;4.17;;;8.80;99.90;;;;;;5026749;28;20183;-81
2024/03/13 07:20:29;;;;;;;4.75;4.35;;;9.10;99.90;;;;;;5035734;28;20571;-84
2024/03/13 07:22:54;;;;;;;5.30;4.80;;;9.10;99.90;;;;;;5025238;28;20210;-83
2024/03/13 07:25:20;;;;;;;4.60;4.10;;;9.40;99.90;;;;;;5031204;28;20656;-83
2024/03/13 07:27:45;;;;;;;3.57;3.27;;;9.10;99.90;;;;;;5035323;28;20218;-85
2024/03/13 07:30:11;;;;;;;4.40;4.00;;;9.20;99.90;;;;;;5032124;28;20208;-85
2024/03/13 07:32:39;;;;;;;3.40;3.10;;;9.60;99.90;;;;;;5025299;28;20637;-83
2024/03/13 07:35:05;;;;;;;4.18;3.88;;;9.90;99.90;;;;;;5027375;28;20223;-84
2024/03/13 07:37:31;;;;;;;4.00;3.70;;;9.70;99.90;;;;;;5030662;28;20202;-82
2024/03/13 07:39:57;;;;;;;4.28;3.88;;;9.70;99.90;;;;;;5034918;28;20191;-83
2024/03/13 07:42:25;;;;;;;3.43;3.13;;;9.70;99.90;;;;;;5036403;28;20219;-82
2024/03/13 07:44:51;;;;;;;5.10;4.32;;;9.70;99.90;;;;;;5029498;28;20189;-83
2024/03/13 07:47:17;;;;;;;4.90;4.50;;;9.90;99.90;;;;;;5035475;28;20221;-80
2024/03/13 07:49:43;;;;;;;3.87;3.57;;;10.00;99.90;;;;;;5032204;28;20453;-80
2024/03/13 07:52:08;;;;;;;4.03;3.70;;;9.70;99.90;;;;;;5029685;28;20191;-84
2024/03/13 07:54:37;;;;;;;4.50;4.10;;;10.00;99.90;;;;;;5035337;28;20222;-82
2024/03/13 07:57:04;;;;;;;3.83;3.50;;;9.80;99.90;;;;;;5033616;28;20651;-82
2024/03/13 07:59:30;;;;;;;3.70;3.40;;;10.10;99.90;;;;;;5028235;28;20250;-85
2024/03/13 08:01:56;;;;;;;13.23;10.70;;;9.80;99.90;;;;;;5025686;28;20254;-87
2024/03/13 08:04:23;;;;;;;4.00;3.30;;;9.90;99.90;;;;;;5027796;28;20447;-80
2024/03/13 08:06:49;;;;;;;4.10;3.50;;;9.90;99.90;;;;;;5031879;28;20227;-82
2024/03/13 08:09:15;;;;;;;3.85;3.55;;;10.20;99.90;;;;;;5031502;28;20202;-84
2024/03/13 08:11:40;;;;;;;4.47;4.07;;;10.10;99.90;;;;;;5029808;28;20216;-85
2024/03/13 08:14:06;;;;;;;4.10;3.70;;;10.40;99.90;;;;;;5030562;28;20201;-85
2024/03/13 08:16:32;;;;;;;4.10;3.70;;;10.50;99.90;;;;;;5029089;28;20202;-83
2024/03/13 08:18:58;;;;;;;4.93;4.53;;;10.60;99.90;;;;;;5033488;28;20235;-84
2024/03/13 08:21:26;;;;;;;5.33;4.83;;;10.80;99.90;;;;;;5019585;28;20184;-86
2024/03/13 08:23:52;;;;;;;4.40;4.00;;;11.00;99.90;;;;;;5043374;28;20190;-85
2024/03/13 08:26:17;;;;;;;4.80;4.40;;;10.50;99.90;;;;;;5032270;28;20584;-83
2024/03/13 08:28:43;;;;;;;5.00;4.50;;;11.00;99.90;;;;;;5027134;28;20221;-84
2024/03/13 08:31:10;;;;;;;5.43;4.37;;;10.40;99.90;;;;;;5030225;28;20192;-85
2024/03/13 08:33:36;;;;;;;4.95;4.45;;;10.70;99.90;;;;;;5025248;28;20220;-83
2024/03/13 08:36:02;;;;;;;5.40;4.70;;;10.20;99.90;;;;;;5019164;28;20320;-85
2024/03/13 08:38:29;;;;;;;5.03;4.63;;;10.90;99.90;;;;;;5029973;28;20199;-83
2024/03/13 08:40:55;;;;;;;4.40;4.00;;;11.20;99.90;;;;;;5025023;28;20714;-81
2024/03/13 08:43:21;;;;;;;4.40;3.97;;;11.30;99.90;;;;;;5027348;28;20752;-83
2024/03/13 08:45:47;;;;;;;4.60;4.20;;;11.00;99.90;;;;;;5030538;28;20267;-83
2024/03/13 08:48:13;;;;;;;4.70;4.30;;;11.80;99.90;;;;;;5030085;28;20188;-83
2024/03/13 08:50:41;;;;;;;4.03;3.05;;;11.70;99.90;;;;;;5028827;28;20200;-84
2024/03/13 08:53:06;;;;;;;4.88;3.83;;;11.80;99.90;;;;;;5025337;28;20200;-83
2024/03/13 08:55:35;;;;;;;3.63;3.33;;;11.70;99.90;;;;;;5026633;28;20226;-83
2024/03/13 08:58:02;;;;;;;4.30;3.90;;;12.20;99.90;;;;;;5019410;28;20202;-83
2024/03/13 09:00:28;;;;;;;3.63;3.33;;;11.80;99.90;;;;;;5027727;28;20504;-83
2024/03/13 09:02:56;;;;;;;3.70;3.40;;;12.20;99.90;;;;;;5030963;28;20236;-83
2024/03/13 09:05:22;;;;;;;3.55;3.25;;;11.80;99.90;;;;;;5028369;28;20200;-83
2024/03/13 09:07:47;;;;;;;3.13;2.83;;;11.90;99.90;;;;;;5025121;28;20185;-83
2024/03/13 09:10:13;;;;;;;2.07;1.97;;;12.10;99.90;;;;;;5023715;28;20235;-84
2024/03/13 09:12:42;;;;;;;2.73;2.50;;;12.10;99.90;;;;;;5024627;28;20190;-83
2024/03/13 09:15:09;;;;;;;1.85;1.73;;;11.80;99.90;;;;;;5028177;28;20197;-84
2024/03/13 09:17:35;;;;;;;2.13;1.95;;;11.90;99.90;;;;;;5031853;28;20186;-84
2024/03/13 09:20:01;;;;;;;2.40;2.00;;;11.90;99.90;;;;;;5036063;28;20215;-85
2024/03/13 09:22:27;;;;;;;3.07;2.20;;;12.00;99.90;;;;;;5027820;28;20244;-83
2024/03/13 09:24:53;;;;;;;1.80;1.70;;;12.20;99.90;;;;;;5020521;28;20444;-84
2024/03/13 09:27:19;;;;;;;2.10;1.90;;;11.90;99.90;;;;;;5028815;28;20241;-82
2024/03/13 09:29:44;;;;;;;2.20;1.93;;;12.50;99.90;;;;;;5019102;28;20687;-84
2024/03/13 09:32:10;;;;;;;1.50;1.40;;;12.20;99.90;;;;;;5025864;28;20193;-83
2024/03/13 09:34:36;;;;;;;1.70;1.60;;;12.70;99.90;;;;;;5023563;28;20277;-81
2024/03/13 09:37:04;;;;;;;1.48;1.00;;;12.10;99.90;;;;;;5024461;28;20213;-83
2024/03/13 09:39:31;;;;;;;0.85;0.85;;;12.20;99.90;;;;;;5023438;28;20631;-83
2024/03/13 09:42:00;;;;;;;1.00;0.90;;;12.10;99.90;;;;;;5026852;28;20216;-84
2024/03/13 09:44:26;;;;;;;1.88;1.02;;;12.50;99.90;;;;;;5026023;28;20191;-83
2024/03/13 09:46:53;;;;;;;1.50;1.00;;;12.50;99.90;;;;;;5027555;28;20209;-83
2024/03/13 09:49:22;;;;;;;1.00;0.90;;;12.90;99.90;;;;;;5031944;28;20189;-84
2024/03/13 09:51:48;;;;;;;1.20;1.05;;;12.80;99.90;;;;;;5024937;28;20301;-82
2024/03/13 09:54:16;;;;;;;2.53;1.70;;;12.90;99.90;;;;;;5024929;28;20202;-82
2024/03/13 09:56:43;;;;;;;3.10;1.50;;;13.00;99.90;;;;;;5025271;28;20206;-84
2024/03/13 09:59:10;;;;;;;3.40;1.92;;;12.70;99.90;;;;;;5021940;28;20562;-82
2024/03/13 10:01:49;;;;;;;2.08;1.30;;;12.80;99.90;;;;;;5025421;28;20218;-86
2024/03/13 10:04:22;;;;;;;7.13;6.53;;;12.90;99.90;;;;;;5023160;28;20686;-82
2024/03/13 10:06:56;;;;;;;1.10;1.00;;;13.20;99.90;;;;;;5028085;28;20202;-82
2024/03/13 10:09:25;;;;;;;1.65;0.82;;;13.00;99.90;;;;;;5033733;28;20235;-83
2024/03/13 10:11:51;;;;;;;3.20;0.98;;;12.80;99.90;;;;;;5020807;28;20175;-81
2024/03/13 10:14:22;;;;;;;0.70;0.63;;;13.50;99.90;;;;;;5034210;28;21074;-80
2024/03/13 10:16:52;;;;;;;0.90;0.90;;;12.50;99.90;;;;;;5025420;28;20468;-81
2024/03/13 10:19:21;;;;;;;1.42;0.70;;;13.30;99.90;;;;;;5025769;28;20191;-84
2024/03/13 10:21:47;;;;;;;2.22;0.90;;;13.30;99.90;;;;;;5029481;28;20218;-85
2024/03/13 10:24:15;;;;;;;1.70;0.70;;;13.40;99.90;;;;;;5028131;28;20190;-84
2024/03/13 10:26:45;;;;;;;1.17;0.80;;;13.00;99.90;;;;;;5028543;28;20798;-85
2024/03/13 10:29:11;;;;;;;1.05;0.82;;;13.90;99.90;;;;;;5028898;28;20218;-84
2024/03/13 10:31:38;;;;;;;0.95;0.85;;;13.50;99.90;;;;;;5031313;28;20202;-84
2024/03/13 10:34:04;;;;;;;2.20;1.65;;;13.50;99.90;;;;;;5034354;28;20208;-85
2024/03/13 10:36:29;;;;;;;1.67;0.83;;;13.80;99.90;;;;;;5033680;28;20297;-83
2024/03/13 10:39:02;;;;;;;1.27;1.17;;;13.90;99.90;;;;;;5024348;28;20970;-83
2024/03/13 10:41:31;;;;;;;1.70;1.02;;;13.80;99.90;;;;;;5028881;28;20186;-88
2024/03/13 10:43:56;;;;;;;1.10;1.00;;;13.30;99.90;;;;;;5026743;28;20190;-85
2024/03/13 10:46:23;;;;;;;2.07;1.20;;;13.80;99.90;;;;;;5025777;28;20203;-86
2024/03/13 10:48:49;;;;;;;1.55;1.02;;;13.90;99.90;;;;;;5027523;28;20186;-88
2024/03/13 10:51:14;;;;;;;0.73;0.70;;;13.80;99.90;;;;;;5029012;28;20194;-85
2024/03/13 10:53:42;;;;;;;1.10;0.87;;;13.90;99.90;;;;;;5043315;22;20209;-84
2024/03/13 10:56:15;;;;;;;1.88;1.13;;;14.60;99.90;;;;;;5041401;28;20743;-84
2024/03/13 10:58:42;;;;;;;2.10;1.10;;;14.10;99.90;;;;;;5034409;28;20197;-84
2024/03/13 11:01:16;;;;;;;0.93;0.82;;;13.40;99.90;;;;;;5028556;28;20210;-84
2024/03/13 11:03:46;;;;;;;1.92;1.48;;;13.30;99.90;;;;;;5026419;28;20655;-83
2024/03/13 11:06:15;;;;;;;1.92;1.30;;;13.90;99.90;;;;;;5026175;28;20206;-84
2024/03/13 11:08:43;;;;;;;1.50;1.38;;;14.10;99.90;;;;;;5030829;28;20209;-83
2024/03/13 11:11:13;;;;;;;1.40;1.27;;;13.60;99.90;;;;;;5029493;28;20201;-83
2024/03/13 11:13:50;;;;;;;1.25;1.15;;;13.60;99.90;;;;;;5032096;28;20182;-84
2024/03/13 11:16:17;;;;;;;1.20;1.10;;;13.50;99.90;;;;;;5044643;28;20206;-85
2024/03/13 11:18:45;;;;;;;1.75;1.10;;;13.10;99.90;;;;;;5022823;28;20282;-82
2024/03/13 11:21:19;;;;;;;1.38;1.27;;;13.70;99.90;;;;;;5030340;28;20277;-82
2024/03/13 11:23:54;;;;;;;1.40;1.10;;;13.80;99.90;;;;;;5026129;28;20198;-81
2024/03/13 11:26:22;;;;;;;6.45;4.38;;;14.30;99.90;;;;;;5030870;28;20212;-83
2024/03/13 11:28:54;;;;;;;3.45;3.15;;;14.40;99.90;;;;;;5030811;28;20179;-82
2024/03/13 11:31:21;;;;;;;2.97;2.30;;;13.90;99.90;;;;;;5028672;28;20187;-83
2024/03/13 11:33:46;;;;;;;4.03;3.65;;;13.30;99.90;;;;;;5031424;28;20273;-83
2024/03/13 11:36:12;;;;;;;2.77;2.57;;;13.90;99.90;;;;;;5030814;28;20249;-83
2024/03/13 11:38:38;;;;;;;2.70;2.50;;;13.70;99.90;;;;;;5032910;28;20226;-84
2024/03/13 11:41:05;;;;;;;2.80;2.08;;;14.10;99.90;;;;;;5032845;28;20269;-83
2024/03/13 11:43:32;;;;;;;2.55;2.35;;;13.50;99.90;;;;;;5039372;28;20206;-84
2024/03/13 11:45:59;;;;;;;2.28;2.08;;;13.80;99.90;;;;;;5033175;28;20284;-84
2024/03/13 11:48:25;;;;;;;4.47;2.30;;;13.50;99.90;;;;;;5036618;28;20642;-84
2024/03/13 11:51:11;;;;;;;2.90;2.50;;;13.70;99.90;;;;;;5034944;28;20198;-84
2024/03/13 11:53:40;;;;;;;1.98;1.88;;;14.50;99.90;;;;;;5030710;28;20182;-85
2024/03/13 11:56:09;;;;;;;2.50;2.00;;;13.80;99.90;;;;;;5034250;28;20217;-85
2024/03/13 11:58:36;;;;;;;4.22;3.50;;;14.10;99.90;;;;;;5029242;28;20206;-84
2024/03/13 12:01:02;;;;;;;2.60;2.40;;;14.20;99.90;;;;;;5035031;28;20201;-84
2024/03/13 12:03:34;;;;;;;3.50;1.90;;;14.00;99.90;;;;;;5031756;28;20206;-84
2024/03/13 12:06:00;;;;;;;3.95;2.00;;;13.40;99.90;;;;;;5033062;28;20699;-84
2024/03/13 12:08:28;;;;;;;2.33;2.10;;;13.70;99.90;;;;;;5034529;28;20194;-84
2024/03/13 12:10:54;;;;;;;2.63;2.42;;;13.90;99.90;;;;;;5032140;28;20236;-86
2024/03/13 12:13:20;;;;;;;1.77;1.57;;;14.40;99.90;;;;;;5031123;28;20726;-85
2024/03/13 12:15:46;;;;;;;2.65;1.75;;;14.70;99.90;;;;;;5031979;28;20240;-84
2024/03/13 12:18:13;;;;;;;1.40;1.30;;;15.00;99.90;;;;;;5033822;28;20210;-83
2024/03/13 12:20:42;;;;;;;1.75;1.60;;;15.10;99.90;;;;;;5033608;28;20190;-84
2024/03/13 12:23:12;;;;;;;2.30;2.15;;;14.50;99.90;;;;;;5027564;28;20244;-84
2024/03/13 12:25:37;;;;;;;3.42;2.85;;;14.20;99.90;;;;;;5050722;28;20198;-86
2024/03/13 12:28:16;;;;;;;6.43;4.97;;;14.20;99.90;;;;;;5036443;28;20184;-84
2024/03/13 12:30:50;;;;;;;5.30;2.50;;;14.70;99.90;;;;;;5030666;28;20291;-85
2024/03/13 12:33:15;;;;;;;3.50;3.20;;;14.20;99.90;;;;;;5029876;28;20190;-85
2024/03/13 12:35:43;;;;;;;3.40;2.43;;;14.50;99.90;;;;;;5032200;28;20206;-84
2024/03/13 12:38:08;;;;;;;3.42;2.70;;;13.70;99.90;;;;;;5034651;28;20218;-84
2024/03/13 12:40:34;;;;;;;3.33;1.70;;;14.20;99.90;;;;;;5026692;28;20221;-82
2024/03/13 12:43:04;;;;;;;5.60;1.17;;;14.60;99.90;;;;;;5033229;28;20251;-84
2024/03/13 12:45:30;;;;;;;4.70;3.95;;;14.60;99.90;;;;;;5034999;28;21493;-84
2024/03/13 12:47:55;;;;;;;3.43;3.10;;;15.10;99.90;;;;;;5033119;28;20182;-84
2024/03/13 12:50:21;;;;;;;3.20;2.53;;;15.30;99.90;;;;;;5032192;28;20714;-85
2024/03/13 12:52:48;;;;;;;3.27;2.60;;;15.30;99.90;;;;;;5033417;28;20668;-84
2024/03/13 12:55:16;;;;;;;2.80;2.60;;;14.90;99.90;;;;;;5028494;28;20202;-88
2024/03/13 12:57:42;;;;;;;2.90;2.60;;;15.30;99.90;;;;;;5026608;28;20182;-88
2024/03/13 13:00:14;;;;;;;2.00;1.90;;;15.50;99.90;;;;;;5023601;28;20198;-86
2024/03/13 13:02:45;;;;;;;3.42;2.25;;;15.10;99.90;;;;;;5027308;28;20468;-85
2024/03/13 13:05:12;;;;;;;2.20;1.90;;;14.60;99.90;;;;;;5026963;28;20190;-85
2024/03/13 13:07:58;;;;;;;2.65;2.45;;;15.10;99.90;;;;;;5029264;28;20186;-86
2024/03/13 13:10:25;;;;;;;2.80;2.60;;;15.00;99.90;;;;;;5029201;28;20183;-86